sensor_id;sensor_type;location;lat;lon;timestamp;P1;durP1;ratioP1;P2;durP2;ratioP2
72404;SDS011;60395;52.020;113.548;2022-12-18T00:00:58;7.50;;;3.97;;
72404;SDS011;60395;52.020;113.548;2022-12-18T00:04:02;16.43;;;6.33;;
72404;SDS011;60395;52.020;113.548;2022-12-18T00:07:10;18.50;;;7.77;;
72404;SDS011;60395;52.020;113.548;2022-12-18T00:10:13;8.77;;;4.57;;
72404;SDS011;60395;52.020;113.548;2022-12-18T00:13:19;18.10;;;7.50;;
72404;SDS011;60395;52.020;113.548;2022-12-18T00:16:23;28.50;;;11.23;;
72404;SDS011;60395;52.020;113.548;2022-12-18T00:19:27;23.53;;;9.33;;
72404;SDS011;60395;52.020;113.548;2022-12-18T00:22:30;28.77;;;11.57;;
72404;SDS011;60395;52.020;113.548;2022-12-18T00:25:34;19.70;;;7.70;;
72404;SDS011;60395;52.020;113.548;2022-12-18T00:28:38;29.97;;;7.80;;
72404;SDS011;60395;52.020;113.548;2022-12-18T00:31:42;30.20;;;10.20;;
72404;SDS011;60395;52.020;113.548;2022-12-18T00:34:46;29.17;;;9.70;;
72404;SDS011;60395;52.020;113.548;2022-12-18T00:37:49;18.05;;;7.30;;
72404;SDS011;60395;52.020;113.548;2022-12-18T00:40:52;17.13;;;8.57;;
72404;SDS011;60395;52.020;113.548;2022-12-18T00:43:55;24.15;;;10.20;;
72404;SDS011;60395;52.020;113.548;2022-12-18T00:46:58;15.43;;;6.95;;
72404;SDS011;60395;52.020;113.548;2022-12-18T00:50:02;14.05;;;5.72;;
72404;SDS011;60395;52.020;113.548;2022-12-18T00:53:05;8.30;;;4.07;;
72404;SDS011;60395;52.020;113.548;2022-12-18T00:56:08;23.13;;;6.07;;
72404;SDS011;60395;52.020;113.548;2022-12-18T00:59:11;8.13;;;4.15;;
72404;SDS011;60395;52.020;113.548;2022-12-18T01:02:15;16.35;;;6.97;;
72404;SDS011;60395;52.020;113.548;2022-12-18T01:08:21;20.30;;;7.50;;
72404;SDS011;60395;52.020;113.548;2022-12-18T01:11:25;64.25;;;15.73;;
72404;SDS011;60395;52.020;113.548;2022-12-18T01:14:28;40.42;;;11.60;;
72404;SDS011;60395;52.020;113.548;2022-12-18T01:17:31;13.77;;;7.07;;
72404;SDS011;60395;52.020;113.548;2022-12-18T01:23:39;11.30;;;5.00;;
72404;SDS011;60395;52.020;113.548;2022-12-18T01:26:43;10.75;;;5.03;;
72404;SDS011;60395;52.020;113.548;2022-12-18T01:29:48;6.17;;;2.47;;
72404;SDS011;60395;52.020;113.548;2022-12-18T01:32:53;6.73;;;4.20;;
72404;SDS011;60395;52.020;113.548;2022-12-18T01:35:56;46.42;;;11.35;;
72404;SDS011;60395;52.020;113.548;2022-12-18T01:39:00;30.90;;;9.70;;
72404;SDS011;60395;52.020;113.548;2022-12-18T01:42:13;54.73;;;18.93;;
72404;SDS011;60395;52.020;113.548;2022-12-18T01:48:21;20.98;;;6.93;;
72404;SDS011;60395;52.020;113.548;2022-12-18T01:51:24;14.55;;;6.55;;
72404;SDS011;60395;52.020;113.548;2022-12-18T01:54:29;20.27;;;8.43;;
72404;SDS011;60395;52.020;113.548;2022-12-18T01:57:32;15.75;;;7.07;;
72404;SDS011;60395;52.020;113.548;2022-12-18T02:00:36;19.20;;;6.33;;
72404;SDS011;60395;52.020;113.548;2022-12-18T02:03:43;14.82;;;4.43;;
72404;SDS011;60395;52.020;113.548;2022-12-18T02:06:46;14.23;;;7.13;;
72404;SDS011;60395;52.020;113.548;2022-12-18T02:17:01;8.80;;;4.70;;
72404;SDS011;60395;52.020;113.548;2022-12-18T02:20:16;15.40;;;4.73;;
72404;SDS011;60395;52.020;113.548;2022-12-18T02:27:02;14.43;;;6.72;;
72404;SDS011;60395;52.020;113.548;2022-12-18T02:30:09;13.57;;;5.20;;
72404;SDS011;60395;52.020;113.548;2022-12-18T02:33:13;14.82;;;8.27;;
72404;SDS011;60395;52.020;113.548;2022-12-18T02:36:18;16.60;;;8.63;;
72404;SDS011;60395;52.020;113.548;2022-12-18T02:39:23;93.50;;;31.27;;
72404;SDS011;60395;52.020;113.548;2022-12-18T02:42:34;44.13;;;14.63;;
72404;SDS011;60395;52.020;113.548;2022-12-18T02:45:47;36.97;;;13.90;;
72404;SDS011;60395;52.020;113.548;2022-12-18T02:49:06;39.60;;;9.47;;
72404;SDS011;60395;52.020;113.548;2022-12-18T02:52:25;31.30;;;14.00;;
72404;SDS011;60395;52.020;113.548;2022-12-18T02:55:55;32.23;;;12.87;;
72404;SDS011;60395;52.020;113.548;2022-12-18T02:59:16;20.95;;;10.63;;
72404;SDS011;60395;52.020;113.548;2022-12-18T03:02:37;32.72;;;13.77;;
72404;SDS011;60395;52.020;113.548;2022-12-18T03:05:57;41.83;;;13.85;;
72404;SDS011;60395;52.020;113.548;2022-12-18T03:09:08;37.38;;;13.57;;
72404;SDS011;60395;52.020;113.548;2022-12-18T03:15:49;38.65;;;19.48;;
72404;SDS011;60395;52.020;113.548;2022-12-18T03:18:56;62.25;;;19.40;;
72404;SDS011;60395;52.020;113.548;2022-12-18T03:22:06;110.47;;;34.92;;
72404;SDS011;60395;52.020;113.548;2022-12-18T03:25:22;44.50;;;16.35;;
72404;SDS011;60395;52.020;113.548;2022-12-18T03:28:29;47.38;;;17.92;;
72404;SDS011;60395;52.020;113.548;2022-12-18T03:31:37;55.10;;;21.02;;
72404;SDS011;60395;52.020;113.548;2022-12-18T03:34:44;49.67;;;19.80;;
72404;SDS011;60395;52.020;113.548;2022-12-18T03:37:55;61.88;;;22.65;;
72404;SDS011;60395;52.020;113.548;2022-12-18T03:41:15;63.85;;;20.50;;
72404;SDS011;60395;52.020;113.548;2022-12-18T03:44:56;42.15;;;18.73;;
72404;SDS011;60395;52.020;113.548;2022-12-18T03:48:07;65.85;;;25.08;;
72404;SDS011;60395;52.020;113.548;2022-12-18T03:54:46;60.60;;;24.17;;
72404;SDS011;60395;52.020;113.548;2022-12-18T03:57:51;104.47;;;32.70;;
72404;SDS011;60395;52.020;113.548;2022-12-18T04:00:58;72.80;;;31.70;;
72404;SDS011;60395;52.020;113.548;2022-12-18T04:04:05;97.72;;;38.13;;
72404;SDS011;60395;52.020;113.548;2022-12-18T04:07:15;71.20;;;26.27;;
72404;SDS011;60395;52.020;113.548;2022-12-18T04:10:20;118.00;;;41.65;;
72404;SDS011;60395;52.020;113.548;2022-12-18T04:13:24;103.30;;;39.78;;
72404;SDS011;60395;52.020;113.548;2022-12-18T04:16:33;103.75;;;38.65;;
72404;SDS011;60395;52.020;113.548;2022-12-18T04:19:38;87.57;;;33.28;;
72404;SDS011;60395;52.020;113.548;2022-12-18T04:22:42;90.40;;;32.33;;
72404;SDS011;60395;52.020;113.548;2022-12-18T04:25:47;83.35;;;33.10;;
72404;SDS011;60395;52.020;113.548;2022-12-18T04:29:01;88.13;;;27.95;;
72404;SDS011;60395;52.020;113.548;2022-12-18T04:32:04;89.57;;;28.55;;
72404;SDS011;60395;52.020;113.548;2022-12-18T04:35:08;83.05;;;31.65;;
72404;SDS011;60395;52.020;113.548;2022-12-18T04:38:16;87.22;;;30.50;;
72404;SDS011;60395;52.020;113.548;2022-12-18T04:41:23;95.43;;;26.63;;
72404;SDS011;60395;52.020;113.548;2022-12-18T04:44:27;71.72;;;28.92;;
72404;SDS011;60395;52.020;113.548;2022-12-18T04:47:30;42.07;;;22.37;;
72404;SDS011;60395;52.020;113.548;2022-12-18T04:50:34;52.88;;;19.52;;
72404;SDS011;60395;52.020;113.548;2022-12-18T04:53:37;42.33;;;19.08;;
72404;SDS011;60395;52.020;113.548;2022-12-18T04:56:41;68.22;;;21.48;;
72404;SDS011;60395;52.020;113.548;2022-12-18T04:59:44;44.15;;;17.25;;
72404;SDS011;60395;52.020;113.548;2022-12-18T05:02:47;24.33;;;12.60;;
72404;SDS011;60395;52.020;113.548;2022-12-18T05:05:50;59.25;;;24.60;;
72404;SDS011;60395;52.020;113.548;2022-12-18T05:08:54;50.05;;;17.48;;
72404;SDS011;60395;52.020;113.548;2022-12-18T05:11:57;56.50;;;19.63;;
72404;SDS011;60395;52.020;113.548;2022-12-18T05:15:00;54.63;;;22.60;;
72404;SDS011;60395;52.020;113.548;2022-12-18T05:18:03;78.95;;;26.85;;
72404;SDS011;60395;52.020;113.548;2022-12-18T05:21:07;107.40;;;34.10;;
72404;SDS011;60395;52.020;113.548;2022-12-18T05:24:10;88.80;;;30.37;;
72404;SDS011;60395;52.020;113.548;2022-12-18T05:27:14;92.30;;;29.17;;
72404;SDS011;60395;52.020;113.548;2022-12-18T05:30:17;56.17;;;20.73;;
72404;SDS011;60395;52.020;113.548;2022-12-18T05:33:20;54.77;;;23.63;;
72404;SDS011;60395;52.020;113.548;2022-12-18T05:36:24;78.35;;;23.33;;
72404;SDS011;60395;52.020;113.548;2022-12-18T05:39:28;61.50;;;22.95;;
72404;SDS011;60395;52.020;113.548;2022-12-18T05:42:31;90.47;;;28.87;;
72404;SDS011;60395;52.020;113.548;2022-12-18T05:45:36;65.43;;;22.95;;
72404;SDS011;60395;52.020;113.548;2022-12-18T05:48:41;91.63;;;30.67;;
72404;SDS011;60395;52.020;113.548;2022-12-18T05:51:44;60.60;;;22.13;;
72404;SDS011;60395;52.020;113.548;2022-12-18T05:54:48;83.18;;;29.45;;
72404;SDS011;60395;52.020;113.548;2022-12-18T05:57:51;66.20;;;23.25;;
72404;SDS011;60395;52.020;113.548;2022-12-18T06:00:54;67.80;;;24.27;;
72404;SDS011;60395;52.020;113.548;2022-12-18T06:03:57;55.25;;;22.23;;
72404;SDS011;60395;52.020;113.548;2022-12-18T06:07:01;40.67;;;17.63;;
72404;SDS011;60395;52.020;113.548;2022-12-18T06:10:04;61.15;;;21.17;;
72404;SDS011;60395;52.020;113.548;2022-12-18T06:13:08;48.13;;;21.45;;
72404;SDS011;60395;52.020;113.548;2022-12-18T06:16:11;41.22;;;17.88;;
72404;SDS011;60395;52.020;113.548;2022-12-18T06:19:15;45.65;;;20.33;;
72404;SDS011;60395;52.020;113.548;2022-12-18T06:22:19;77.30;;;23.88;;
72404;SDS011;60395;52.020;113.548;2022-12-18T06:25:22;75.50;;;22.70;;
72404;SDS011;60395;52.020;113.548;2022-12-18T06:28:25;50.00;;;18.05;;
72404;SDS011;60395;52.020;113.548;2022-12-18T06:31:28;59.03;;;20.60;;
72404;SDS011;60395;52.020;113.548;2022-12-18T06:34:31;57.17;;;19.90;;
72404;SDS011;60395;52.020;113.548;2022-12-18T06:37:35;60.05;;;25.35;;
72404;SDS011;60395;52.020;113.548;2022-12-18T06:40:38;61.15;;;21.30;;
72404;SDS011;60395;52.020;113.548;2022-12-18T06:43:42;39.90;;;12.82;;
72404;SDS011;60395;52.020;113.548;2022-12-18T06:46:45;88.80;;;28.02;;
72404;SDS011;60395;52.020;113.548;2022-12-18T06:49:48;51.53;;;16.35;;
72404;SDS011;60395;52.020;113.548;2022-12-18T06:52:52;78.43;;;27.60;;
72404;SDS011;60395;52.020;113.548;2022-12-18T06:56:01;80.63;;;28.08;;
72404;SDS011;60395;52.020;113.548;2022-12-18T06:59:12;77.82;;;29.25;;
72404;SDS011;60395;52.020;113.548;2022-12-18T07:02:16;84.10;;;24.38;;
72404;SDS011;60395;52.020;113.548;2022-12-18T07:05:20;82.90;;;27.63;;
72404;SDS011;60395;52.020;113.548;2022-12-18T07:08:23;59.25;;;20.42;;
72404;SDS011;60395;52.020;113.548;2022-12-18T07:11:26;46.55;;;18.50;;
72404;SDS011;60395;52.020;113.548;2022-12-18T07:14:29;83.80;;;26.45;;
72404;SDS011;60395;52.020;113.548;2022-12-18T07:17:33;67.07;;;24.20;;
72404;SDS011;60395;52.020;113.548;2022-12-18T07:20:36;80.35;;;23.02;;
72404;SDS011;60395;52.020;113.548;2022-12-18T07:23:39;66.57;;;23.37;;
72404;SDS011;60395;52.020;113.548;2022-12-18T07:26:45;69.78;;;25.05;;
72404;SDS011;60395;52.020;113.548;2022-12-18T07:29:49;59.65;;;24.27;;
72404;SDS011;60395;52.020;113.548;2022-12-18T07:32:52;50.87;;;19.63;;
72404;SDS011;60395;52.020;113.548;2022-12-18T07:35:55;54.17;;;21.67;;
72404;SDS011;60395;52.020;113.548;2022-12-18T07:38:58;77.80;;;26.70;;
72404;SDS011;60395;52.020;113.548;2022-12-18T07:42:01;66.87;;;24.27;;
72404;SDS011;60395;52.020;113.548;2022-12-18T07:45:23;45.80;;;18.55;;
72404;SDS011;60395;52.020;113.548;2022-12-18T07:48:27;61.58;;;22.92;;
72404;SDS011;60395;52.020;113.548;2022-12-18T07:51:31;52.78;;;19.65;;
72404;SDS011;60395;52.020;113.548;2022-12-18T07:54:34;60.50;;;18.87;;
72404;SDS011;60395;52.020;113.548;2022-12-18T07:57:37;52.93;;;20.27;;
72404;SDS011;60395;52.020;113.548;2022-12-18T08:01:07;46.55;;;17.25;;
72404;SDS011;60395;52.020;113.548;2022-12-18T08:04:13;35.50;;;14.18;;
72404;SDS011;60395;52.020;113.548;2022-12-18T08:07:17;56.63;;;20.98;;
72404;SDS011;60395;52.020;113.548;2022-12-18T08:10:20;92.50;;;32.07;;
72404;SDS011;60395;52.020;113.548;2022-12-18T08:13:23;138.98;;;43.40;;
72404;SDS011;60395;52.020;113.548;2022-12-18T08:16:27;108.63;;;34.38;;
72404;SDS011;60395;52.020;113.548;2022-12-18T08:19:30;143.05;;;42.97;;
72404;SDS011;60395;52.020;113.548;2022-12-18T08:22:34;103.72;;;33.50;;
72404;SDS011;60395;52.020;113.548;2022-12-18T08:25:41;55.90;;;22.55;;
72404;SDS011;60395;52.020;113.548;2022-12-18T08:28:44;59.63;;;22.13;;
72404;SDS011;60395;52.020;113.548;2022-12-18T08:31:48;57.37;;;22.17;;
72404;SDS011;60395;52.020;113.548;2022-12-18T08:49:45;23.13;;;12.90;;
72404;SDS011;60395;52.020;113.548;2022-12-18T08:54:38;39.97;;;13.18;;
72404;SDS011;60395;52.020;113.548;2022-12-18T09:22:44;32.60;;;14.63;;
72404;SDS011;60395;52.020;113.548;2022-12-18T09:25:48;38.55;;;12.63;;
72404;SDS011;60395;52.020;113.548;2022-12-18T09:28:52;21.70;;;10.98;;
72404;SDS011;60395;52.020;113.548;2022-12-18T09:31:55;24.80;;;9.75;;
72404;SDS011;60395;52.020;113.548;2022-12-18T09:34:58;34.15;;;12.98;;
72404;SDS011;60395;52.020;113.548;2022-12-18T09:38:02;18.58;;;6.20;;
72404;SDS011;60395;52.020;113.548;2022-12-18T09:41:06;22.38;;;9.52;;
72404;SDS011;60395;52.020;113.548;2022-12-18T09:44:29;30.05;;;11.55;;
72404;SDS011;60395;52.020;113.548;2022-12-18T09:47:45;41.57;;;13.30;;
72404;SDS011;60395;52.020;113.548;2022-12-18T09:50:51;16.67;;;8.13;;
72404;SDS011;60395;52.020;113.548;2022-12-18T09:54:06;20.70;;;6.17;;
72404;SDS011;60395;52.020;113.548;2022-12-18T09:57:15;27.87;;;7.10;;
72404;SDS011;60395;52.020;113.548;2022-12-18T10:00:22;32.53;;;10.67;;
72404;SDS011;60395;52.020;113.548;2022-12-18T10:03:27;45.60;;;12.80;;
72404;SDS011;60395;52.020;113.548;2022-12-18T10:09:42;30.30;;;12.80;;
72404;SDS011;60395;52.020;113.548;2022-12-18T10:19:39;25.33;;;9.60;;
72404;SDS011;60395;52.020;113.548;2022-12-18T10:22:54;14.05;;;7.25;;
72404;SDS011;60395;52.020;113.548;2022-12-18T10:26:03;37.07;;;7.77;;
72404;SDS011;60395;52.020;113.548;2022-12-18T10:29:12;33.10;;;15.50;;
72404;SDS011;60395;52.020;113.548;2022-12-18T10:32:20;30.00;;;12.03;;
72404;SDS011;60395;52.020;113.548;2022-12-18T10:35:28;37.30;;;13.53;;
72404;SDS011;60395;52.020;113.548;2022-12-18T10:38:31;23.10;;;10.70;;
72404;SDS011;60395;52.020;113.548;2022-12-18T10:41:35;27.70;;;14.13;;
72404;SDS011;60395;52.020;113.548;2022-12-18T10:44:38;37.40;;;17.33;;
72404;SDS011;60395;52.020;113.548;2022-12-18T10:47:42;26.23;;;12.40;;
72404;SDS011;60395;52.020;113.548;2022-12-18T10:50:48;22.60;;;11.83;;
72404;SDS011;60395;52.020;113.548;2022-12-18T10:54:18;25.93;;;9.93;;
72404;SDS011;60395;52.020;113.548;2022-12-18T10:57:32;27.97;;;10.73;;
72404;SDS011;60395;52.020;113.548;2022-12-18T11:00:38;32.78;;;10.18;;
72404;SDS011;60395;52.020;113.548;2022-12-18T11:03:45;38.63;;;14.73;;
72404;SDS011;60395;52.020;113.548;2022-12-18T11:07:04;53.20;;;19.47;;
72404;SDS011;60395;52.020;113.548;2022-12-18T11:10:14;37.43;;;16.47;;
72404;SDS011;60395;52.020;113.548;2022-12-18T11:13:23;37.57;;;14.27;;
72404;SDS011;60395;52.020;113.548;2022-12-18T11:16:30;138.00;;;43.83;;
72404;SDS011;60395;52.020;113.548;2022-12-18T11:19:39;75.07;;;30.73;;
72404;SDS011;60395;52.020;113.548;2022-12-18T11:22:44;25.70;;;13.77;;
72404;SDS011;60395;52.020;113.548;2022-12-18T11:25:59;31.13;;;15.77;;
72404;SDS011;60395;52.020;113.548;2022-12-18T11:29:09;27.13;;;13.87;;
72404;SDS011;60395;52.020;113.548;2022-12-18T11:32:25;23.00;;;12.20;;
72404;SDS011;60395;52.020;113.548;2022-12-18T11:38:40;20.73;;;9.73;;
72404;SDS011;60395;52.020;113.548;2022-12-18T11:45:30;35.57;;;13.23;;
72404;SDS011;60395;52.020;113.548;2022-12-18T11:48:41;46.87;;;15.43;;
72404;SDS011;60395;52.020;113.548;2022-12-18T11:51:52;33.43;;;15.33;;
72404;SDS011;60395;52.020;113.548;2022-12-18T11:58:47;24.60;;;9.53;;
72404;SDS011;60395;52.020;113.548;2022-12-18T12:01:51;28.13;;;9.20;;
72404;SDS011;60395;52.020;113.548;2022-12-18T12:05:15;24.20;;;11.60;;
72404;SDS011;60395;52.020;113.548;2022-12-18T12:08:50;24.67;;;10.77;;
72404;SDS011;60395;52.020;113.548;2022-12-18T12:16:04;18.90;;;9.80;;
72404;SDS011;60395;52.020;113.548;2022-12-18T12:25:49;44.05;;;16.35;;
72404;SDS011;60395;52.020;113.548;2022-12-18T12:35:51;19.50;;;7.63;;
72404;SDS011;60395;52.020;113.548;2022-12-18T12:39:08;44.07;;;15.87;;
72404;SDS011;60395;52.020;113.548;2022-12-18T12:42:19;35.97;;;12.87;;
72404;SDS011;60395;52.020;113.548;2022-12-18T12:49:18;21.23;;;7.73;;
72404;SDS011;60395;52.020;113.548;2022-12-18T12:55:31;34.53;;;11.57;;
72404;SDS011;60395;52.020;113.548;2022-12-18T12:58:47;39.83;;;16.23;;
72404;SDS011;60395;52.020;113.548;2022-12-18T13:13:23;43.17;;;14.20;;
72404;SDS011;60395;52.020;113.548;2022-12-18T13:16:26;35.67;;;13.77;;
72404;SDS011;60395;52.020;113.548;2022-12-18T13:19:29;16.38;;;7.53;;
72404;SDS011;60395;52.020;113.548;2022-12-18T13:22:35;15.70;;;7.43;;
72404;SDS011;60395;52.020;113.548;2022-12-18T13:25:39;43.77;;;15.83;;
72404;SDS011;60395;52.020;113.548;2022-12-18T13:38:35;16.87;;;6.90;;
72404;SDS011;60395;52.020;113.548;2022-12-18T13:41:41;29.70;;;12.43;;
72404;SDS011;60395;52.020;113.548;2022-12-18T13:44:45;29.33;;;15.27;;
72404;SDS011;60395;52.020;113.548;2022-12-18T13:47:49;38.07;;;12.13;;
72404;SDS011;60395;52.020;113.548;2022-12-18T13:51:15;36.47;;;13.23;;
72404;SDS011;60395;52.020;113.548;2022-12-18T13:54:36;58.83;;;20.40;;
72404;SDS011;60395;52.020;113.548;2022-12-18T13:57:42;47.10;;;21.80;;
72404;SDS011;60395;52.020;113.548;2022-12-18T14:00:48;51.00;;;21.83;;
72404;SDS011;60395;52.020;113.548;2022-12-18T14:04:08;42.47;;;13.00;;
72404;SDS011;60395;52.020;113.548;2022-12-18T14:07:13;44.37;;;17.73;;
72404;SDS011;60395;52.020;113.548;2022-12-18T14:10:26;11.85;;;9.18;;
72404;SDS011;60395;52.020;113.548;2022-12-18T14:13:49;22.70;;;10.63;;
72404;SDS011;60395;52.020;113.548;2022-12-18T14:16:53;38.53;;;9.97;;
72404;SDS011;60395;52.020;113.548;2022-12-18T14:19:56;53.25;;;17.85;;
72404;SDS011;60395;52.020;113.548;2022-12-18T14:23:00;25.93;;;10.57;;
72404;SDS011;60395;52.020;113.548;2022-12-18T14:26:19;23.02;;;7.93;;
72404;SDS011;60395;52.020;113.548;2022-12-18T14:29:34;16.30;;;8.10;;
72404;SDS011;60395;52.020;113.548;2022-12-18T14:32:37;24.30;;;11.93;;
72404;SDS011;60395;52.020;113.548;2022-12-18T14:35:42;21.05;;;9.27;;
72404;SDS011;60395;52.020;113.548;2022-12-18T14:38:57;24.33;;;9.43;;
72404;SDS011;60395;52.020;113.548;2022-12-18T14:42:01;12.77;;;6.10;;
72404;SDS011;60395;52.020;113.548;2022-12-18T14:48:43;24.37;;;10.27;;
72404;SDS011;60395;52.020;113.548;2022-12-18T14:51:54;16.37;;;9.17;;
72404;SDS011;60395;52.020;113.548;2022-12-18T14:55:13;26.40;;;10.77;;
72404;SDS011;60395;52.020;113.548;2022-12-18T14:58:18;20.17;;;9.57;;
72404;SDS011;60395;52.020;113.548;2022-12-18T15:01:23;14.98;;;9.07;;
72404;SDS011;60395;52.020;113.548;2022-12-18T15:04:33;27.73;;;13.63;;
72404;SDS011;60395;52.020;113.548;2022-12-18T15:07:46;44.30;;;18.63;;
72404;SDS011;60395;52.020;113.548;2022-12-18T15:11:00;80.50;;;28.23;;
72404;SDS011;60395;52.020;113.548;2022-12-18T15:17:45;78.03;;;25.33;;
72404;SDS011;60395;52.020;113.548;2022-12-18T15:21:07;84.90;;;31.75;;
72404;SDS011;60395;52.020;113.548;2022-12-18T15:24:18;98.33;;;31.10;;
72404;SDS011;60395;52.020;113.548;2022-12-18T15:27:28;105.70;;;24.47;;
72404;SDS011;60395;52.020;113.548;2022-12-18T15:30:38;60.10;;;22.23;;
72404;SDS011;60395;52.020;113.548;2022-12-18T15:33:42;90.25;;;28.80;;
72404;SDS011;60395;52.020;113.548;2022-12-18T15:36:51;41.47;;;21.50;;
72404;SDS011;60395;52.020;113.548;2022-12-18T15:39:54;52.70;;;22.45;;
72404;SDS011;60395;52.020;113.548;2022-12-18T15:42:57;42.90;;;20.53;;
72404;SDS011;60395;52.020;113.548;2022-12-18T15:46:22;50.43;;;19.23;;
72404;SDS011;60395;52.020;113.548;2022-12-18T15:49:27;47.83;;;16.43;;
72404;SDS011;60395;52.020;113.548;2022-12-18T15:52:31;16.10;;;7.13;;
72404;SDS011;60395;52.020;113.548;2022-12-18T15:55:48;61.60;;;19.60;;
72404;SDS011;60395;52.020;113.548;2022-12-18T15:59:12;49.83;;;23.13;;
72404;SDS011;60395;52.020;113.548;2022-12-18T16:02:17;69.13;;;29.10;;
72404;SDS011;60395;52.020;113.548;2022-12-18T16:05:21;177.83;;;58.00;;
72404;SDS011;60395;52.020;113.548;2022-12-18T16:08:26;132.53;;;42.90;;
72404;SDS011;60395;52.020;113.548;2022-12-18T16:11:31;117.57;;;36.13;;
72404;SDS011;60395;52.020;113.548;2022-12-18T16:17:48;70.10;;;28.30;;
72404;SDS011;60395;52.020;113.548;2022-12-18T16:20:51;91.03;;;38.42;;
72404;SDS011;60395;52.020;113.548;2022-12-18T16:26:59;106.22;;;39.25;;
72404;SDS011;60395;52.020;113.548;2022-12-18T16:30:03;50.55;;;24.10;;
72404;SDS011;60395;52.020;113.548;2022-12-18T16:33:07;52.90;;;21.67;;
72404;SDS011;60395;52.020;113.548;2022-12-18T16:36:12;39.43;;;18.73;;
72404;SDS011;60395;52.020;113.548;2022-12-18T16:39:16;44.75;;;12.32;;
72404;SDS011;60395;52.020;113.548;2022-12-18T16:45:22;16.90;;;7.23;;
72404;SDS011;60395;52.020;113.548;2022-12-18T16:48:25;8.93;;;7.05;;
72404;SDS011;60395;52.020;113.548;2022-12-18T16:51:34;26.63;;;11.13;;
72404;SDS011;60395;52.020;113.548;2022-12-18T16:54:37;25.63;;;10.20;;
72404;SDS011;60395;52.020;113.548;2022-12-18T16:57:40;19.63;;;8.25;;
72404;SDS011;60395;52.020;113.548;2022-12-18T17:00:43;18.50;;;8.77;;
72404;SDS011;60395;52.020;113.548;2022-12-18T17:04:00;26.17;;;15.20;;
72404;SDS011;60395;52.020;113.548;2022-12-18T17:07:05;10.53;;;5.73;;
72404;SDS011;60395;52.020;113.548;2022-12-18T17:10:08;55.03;;;21.90;;
72404;SDS011;60395;52.020;113.548;2022-12-18T17:13:11;21.33;;;9.85;;
72404;SDS011;60395;52.020;113.548;2022-12-18T17:16:14;13.00;;;7.13;;
72404;SDS011;60395;52.020;113.548;2022-12-18T17:19:19;25.63;;;10.70;;
72404;SDS011;60395;52.020;113.548;2022-12-18T17:22:22;41.77;;;16.13;;
72404;SDS011;60395;52.020;113.548;2022-12-18T17:25:26;36.38;;;15.73;;
72404;SDS011;60395;52.020;113.548;2022-12-18T17:28:29;32.45;;;10.27;;
72404;SDS011;60395;52.020;113.548;2022-12-18T17:31:33;55.22;;;18.08;;
72404;SDS011;60395;52.020;113.548;2022-12-18T17:34:36;94.20;;;32.57;;
72404;SDS011;60395;52.020;113.548;2022-12-18T17:37:40;53.03;;;24.15;;
72404;SDS011;60395;52.020;113.548;2022-12-18T17:40:43;70.47;;;29.35;;
72404;SDS011;60395;52.020;113.548;2022-12-18T17:43:57;77.57;;;27.57;;
72404;SDS011;60395;52.020;113.548;2022-12-18T17:47:02;87.00;;;18.17;;
72404;SDS011;60395;52.020;113.548;2022-12-18T17:50:05;18.80;;;9.88;;
72404;SDS011;60395;52.020;113.548;2022-12-18T17:56:12;16.93;;;8.70;;
72404;SDS011;60395;52.020;113.548;2022-12-18T17:59:16;14.43;;;6.70;;
72404;SDS011;60395;52.020;113.548;2022-12-18T18:02:19;6.63;;;4.07;;
72404;SDS011;60395;52.020;113.548;2022-12-18T18:05:23;5.17;;;4.77;;
72404;SDS011;60395;52.020;113.548;2022-12-18T18:08:27;4.05;;;1.83;;
72404;SDS011;60395;52.020;113.548;2022-12-18T18:11:30;11.13;;;6.67;;
72404;SDS011;60395;52.020;113.548;2022-12-18T18:14:54;12.60;;;5.87;;
72404;SDS011;60395;52.020;113.548;2022-12-18T18:17:57;3.47;;;3.03;;
72404;SDS011;60395;52.020;113.548;2022-12-18T18:21:03;11.43;;;7.90;;
72404;SDS011;60395;52.020;113.548;2022-12-18T18:24:08;51.83;;;14.20;;
72404;SDS011;60395;52.020;113.548;2022-12-18T18:27:14;44.50;;;15.13;;
72404;SDS011;60395;52.020;113.548;2022-12-18T18:33:20;19.23;;;6.30;;
72404;SDS011;60395;52.020;113.548;2022-12-18T18:36:23;21.50;;;9.82;;
72404;SDS011;60395;52.020;113.548;2022-12-18T18:39:27;17.25;;;10.15;;
72404;SDS011;60395;52.020;113.548;2022-12-18T18:42:31;14.00;;;9.97;;
72404;SDS011;60395;52.020;113.548;2022-12-18T18:45:34;15.88;;;11.27;;
72404;SDS011;60395;52.020;113.548;2022-12-18T18:48:37;16.60;;;7.93;;
72404;SDS011;60395;52.020;113.548;2022-12-18T18:51:44;33.63;;;9.07;;
72404;SDS011;60395;52.020;113.548;2022-12-18T18:54:47;6.57;;;5.22;;
72404;SDS011;60395;52.020;113.548;2022-12-18T18:58:10;20.00;;;5.83;;
72404;SDS011;60395;52.020;113.548;2022-12-18T19:01:14;6.68;;;4.78;;
72404;SDS011;60395;52.020;113.548;2022-12-18T19:04:19;9.47;;;4.97;;
72404;SDS011;60395;52.020;113.548;2022-12-18T19:07:22;29.60;;;11.10;;
72404;SDS011;60395;52.020;113.548;2022-12-18T19:10:31;19.40;;;7.73;;
72404;SDS011;60395;52.020;113.548;2022-12-18T19:13:34;22.70;;;12.10;;
72404;SDS011;60395;52.020;113.548;2022-12-18T19:16:38;39.75;;;11.60;;
72404;SDS011;60395;52.020;113.548;2022-12-18T19:19:42;10.77;;;8.17;;
72404;SDS011;60395;52.020;113.548;2022-12-18T19:22:45;24.02;;;7.35;;
72404;SDS011;60395;52.020;113.548;2022-12-18T19:25:59;14.53;;;7.13;;
72404;SDS011;60395;52.020;113.548;2022-12-18T19:29:23;33.93;;;11.40;;
72404;SDS011;60395;52.020;113.548;2022-12-18T19:32:26;21.48;;;8.70;;
72404;SDS011;60395;52.020;113.548;2022-12-18T19:35:29;22.05;;;12.55;;
72404;SDS011;60395;52.020;113.548;2022-12-18T19:38:33;18.83;;;10.13;;
72404;SDS011;60395;52.020;113.548;2022-12-18T19:41:37;20.73;;;7.22;;
72404;SDS011;60395;52.020;113.548;2022-12-18T19:44:40;26.13;;;10.80;;
72404;SDS011;60395;52.020;113.548;2022-12-18T19:47:44;31.73;;;11.43;;
72404;SDS011;60395;52.020;113.548;2022-12-18T19:50:47;28.60;;;10.60;;
72404;SDS011;60395;52.020;113.548;2022-12-18T19:53:51;36.58;;;14.00;;
72404;SDS011;60395;52.020;113.548;2022-12-18T19:57:00;10.87;;;5.77;;
72404;SDS011;60395;52.020;113.548;2022-12-18T20:03:12;12.67;;;6.87;;
72404;SDS011;60395;52.020;113.548;2022-12-18T20:06:30;7.07;;;4.13;;
72404;SDS011;60395;52.020;113.548;2022-12-18T20:09:35;5.53;;;3.53;;
72404;SDS011;60395;52.020;113.548;2022-12-18T20:15:42;21.00;;;7.53;;
72404;SDS011;60395;52.020;113.548;2022-12-18T20:18:46;15.37;;;6.67;;
72404;SDS011;60395;52.020;113.548;2022-12-18T20:21:50;19.27;;;8.37;;
72404;SDS011;60395;52.020;113.548;2022-12-18T20:24:54;28.33;;;10.23;;
72404;SDS011;60395;52.020;113.548;2022-12-18T20:27:57;20.95;;;10.48;;
72404;SDS011;60395;52.020;113.548;2022-12-18T20:31:01;7.43;;;3.35;;